sensor_id;sensor_type;location;lat;lon;timestamp;pressure;altitude;pressure_sealevel;temperature;humidity
40794;BME280;26502;51.886;15.604;2022-12-16T00:02:54;100303.12;;;-8.29;71.08
40794;BME280;26502;51.886;15.604;2022-12-16T00:08:02;100305.30;;;-8.30;71.13
40794;BME280;26502;51.886;15.604;2022-12-16T00:13:10;100313.14;;;-8.28;70.93
40794;BME280;26502;51.886;15.604;2022-12-16T00:18:17;100304.45;;;-8.21;71.03
40794;BME280;26502;51.886;15.604;2022-12-16T00:23:25;100303.35;;;-8.13;71.26
40794;BME280;26502;51.886;15.604;2022-12-16T00:28:33;100306.07;;;-8.05;71.63
40794;BME280;26502;51.886;15.604;2022-12-16T00:33:42;100303.04;;;-7.94;71.50
40794;BME280;26502;51.886;15.604;2022-12-16T00:38:50;100294.84;;;-7.86;71.60
40794;BME280;26502;51.886;15.604;2022-12-16T00:43:58;100297.34;;;-7.84;71.67
40794;BME280;26502;51.886;15.604;2022-12-16T00:49:06;100292.82;;;-7.81;71.74
40794;BME280;26502;51.886;15.604;2022-12-16T00:54:14;100283.36;;;-7.75;71.63
40794;BME280;26502;51.886;15.604;2022-12-16T00:59:21;100283.05;;;-7.69;71.76
40794;BME280;26502;51.886;15.604;2022-12-16T01:04:29;100283.23;;;-7.68;72.03
40794;BME280;26502;51.886;15.604;2022-12-16T01:09:36;100280.77;;;-7.65;72.02
40794;BME280;26502;51.886;15.604;2022-12-16T01:14:44;100270.91;;;-7.61;72.02
40794;BME280;26502;51.886;15.604;2022-12-16T01:19:52;100266.89;;;-7.52;72.27
40794;BME280;26502;51.886;15.604;2022-12-16T01:24:59;100268.48;;;-7.46;72.58
40794;BME280;26502;51.886;15.604;2022-12-16T01:30:09;100263.63;;;-7.41;72.78
40794;BME280;26502;51.886;15.604;2022-12-16T01:35:17;100265.98;;;-7.33;72.89
40794;BME280;26502;51.886;15.604;2022-12-16T01:40:25;100255.97;;;-7.22;72.98
40794;BME280;26502;51.886;15.604;2022-12-16T01:45:35;100252.54;;;-7.16;72.88
40794;BME280;26502;51.886;15.604;2022-12-16T01:50:43;100247.69;;;-7.12;72.81
40794;BME280;26502;51.886;15.604;2022-12-16T01:55:52;100254.46;;;-7.05;72.84
40794;BME280;26502;51.886;15.604;2022-12-16T02:00:59;100254.11;;;-7.05;73.07
40794;BME280;26502;51.886;15.604;2022-12-16T02:06:08;100253.89;;;-7.06;72.80
40794;BME280;26502;51.886;15.604;2022-12-16T02:11:41;100258.79;;;-7.10;72.87
40794;BME280;26502;51.886;15.604;2022-12-16T02:16:56;100262.54;;;-7.06;73.08
40794;BME280;26502;51.886;15.604;2022-12-16T02:22:12;100256.74;;;-6.98;73.06
40794;BME280;26502;51.886;15.604;2022-12-16T02:27:54;100250.82;;;-6.94;73.34
40794;BME280;26502;51.886;15.604;2022-12-16T02:33:15;100250.61;;;-6.95;73.42
40794;BME280;26502;51.886;15.604;2022-12-16T02:38:36;100247.67;;;-6.95;73.34
40794;BME280;26502;51.886;15.604;2022-12-16T02:43:54;100237.17;;;-6.94;73.05
40794;BME280;26502;51.886;15.604;2022-12-16T02:49:34;100223.77;;;-6.92;73.33
40794;BME280;26502;51.886;15.604;2022-12-16T02:54:36;100216.35;;;-6.92;73.37
40794;BME280;26502;51.886;15.604;2022-12-16T02:59:50;100211.82;;;-6.94;73.64
40794;BME280;26502;51.886;15.604;2022-12-16T03:05:04;100215.69;;;-6.91;73.50
40794;BME280;26502;51.886;15.604;2022-12-16T03:10:16;100214.84;;;-6.85;73.61
40794;BME280;26502;51.886;15.604;2022-12-16T03:15:27;100221.66;;;-6.82;73.59
40794;BME280;26502;51.886;15.604;2022-12-16T03:20:41;100233.89;;;-6.78;73.52
40794;BME280;26502;51.886;15.604;2022-12-16T03:25:52;100233.73;;;-6.71;73.53
40794;BME280;26502;51.886;15.604;2022-12-16T03:31:06;100226.35;;;-6.70;73.73
40794;BME280;26502;51.886;15.604;2022-12-16T03:36:21;100209.44;;;-6.69;73.44
40794;BME280;26502;51.886;15.604;2022-12-16T03:41:31;100189.42;;;-6.68;73.68
40794;BME280;26502;51.886;15.604;2022-12-16T03:46:40;100187.86;;;-6.69;73.80
40794;BME280;26502;51.886;15.604;2022-12-16T03:51:47;100191.63;;;-6.70;73.61
40794;BME280;26502;51.886;15.604;2022-12-16T03:56:55;100192.81;;;-6.77;73.73
40794;BME280;26502;51.886;15.604;2022-12-16T04:02:03;100188.40;;;-6.74;73.92
40794;BME280;26502;51.886;15.604;2022-12-16T04:07:11;100181.07;;;-6.77;73.92
40794;BME280;26502;51.886;15.604;2022-12-16T04:12:29;100188.52;;;-6.76;74.02
40794;BME280;26502;51.886;15.604;2022-12-16T04:17:55;100191.58;;;-6.72;74.11
40794;BME280;26502;51.886;15.604;2022-12-16T04:23:16;100193.88;;;-6.64;74.00
40794;BME280;26502;51.886;15.604;2022-12-16T04:28:42;100196.52;;;-6.63;74.11
40794;BME280;26502;51.886;15.604;2022-12-16T04:33:49;100194.77;;;-6.63;73.98
40794;BME280;26502;51.886;15.604;2022-12-16T04:39:14;100200.03;;;-6.60;74.05
40794;BME280;26502;51.886;15.604;2022-12-16T04:44:38;100205.18;;;-6.56;74.24
40794;BME280;26502;51.886;15.604;2022-12-16T04:50:04;100205.93;;;-6.53;74.43
40794;BME280;26502;51.886;15.604;2022-12-16T04:55:31;100211.80;;;-6.53;74.52
40794;BME280;26502;51.886;15.604;2022-12-16T05:00:56;100221.33;;;-6.53;74.56
40794;BME280;26502;51.886;15.604;2022-12-16T05:06:22;100225.89;;;-6.50;74.63
40794;BME280;26502;51.886;15.604;2022-12-16T05:11:47;100229.08;;;-6.48;74.77
40794;BME280;26502;51.886;15.604;2022-12-16T05:17:12;100232.75;;;-6.46;74.64
40794;BME280;26502;51.886;15.604;2022-12-16T05:22:37;100240.58;;;-6.44;74.85
40794;BME280;26502;51.886;15.604;2022-12-16T05:28:02;100248.19;;;-6.44;75.05
40794;BME280;26502;51.886;15.604;2022-12-16T05:33:27;100255.89;;;-6.41;75.02
40794;BME280;26502;51.886;15.604;2022-12-16T05:38:52;100263.35;;;-6.33;75.06
40794;BME280;26502;51.886;15.604;2022-12-16T05:44:17;100262.27;;;-6.29;75.23
40794;BME280;26502;51.886;15.604;2022-12-16T05:49:41;100266.58;;;-6.24;74.97
40794;BME280;26502;51.886;15.604;2022-12-16T05:55:07;100268.91;;;-6.20;74.80
40794;BME280;26502;51.886;15.604;2022-12-16T06:00:32;100275.26;;;-6.16;75.04
40794;BME280;26502;51.886;15.604;2022-12-16T06:05:58;100286.09;;;-6.12;74.78
40794;BME280;26502;51.886;15.604;2022-12-16T06:11:23;100285.41;;;-6.11;75.15
40794;BME280;26502;51.886;15.604;2022-12-16T06:16:49;100284.41;;;-6.10;74.96
40794;BME280;26502;51.886;15.604;2022-12-16T06:22:14;100286.16;;;-6.10;75.00
40794;BME280;26502;51.886;15.604;2022-12-16T06:27:39;100282.52;;;-6.10;75.11
40794;BME280;26502;51.886;15.604;2022-12-16T06:33:04;100284.87;;;-6.12;74.88
40794;BME280;26502;51.886;15.604;2022-12-16T06:38:29;100286.03;;;-6.08;75.26
40794;BME280;26502;51.886;15.604;2022-12-16T06:43:54;100284.45;;;-6.09;75.07
40794;BME280;26502;51.886;15.604;2022-12-16T06:49:19;100291.73;;;-6.08;75.07
40794;BME280;26502;51.886;15.604;2022-12-16T06:54:43;100293.10;;;-6.02;75.25
40794;BME280;26502;51.886;15.604;2022-12-16T07:00:12;100290.55;;;-6.01;74.96
40794;BME280;26502;51.886;15.604;2022-12-16T07:05:35;100296.95;;;-6.01;75.12
40794;BME280;26502;51.886;15.604;2022-12-16T07:11:01;100297.02;;;-5.97;75.26
40794;BME280;26502;51.886;15.604;2022-12-16T07:16:25;100297.68;;;-5.92;75.66
40794;BME280;26502;51.886;15.604;2022-12-16T07:21:53;100297.05;;;-5.97;75.28
40794;BME280;26502;51.886;15.604;2022-12-16T07:27:17;100305.17;;;-5.97;75.61
40794;BME280;26502;51.886;15.604;2022-12-16T07:32:42;100315.09;;;-5.94;75.60
40794;BME280;26502;51.886;15.604;2022-12-16T07:38:06;100321.14;;;-5.88;75.74
40794;BME280;26502;51.886;15.604;2022-12-16T07:43:32;100326.89;;;-5.87;75.96
40794;BME280;26502;51.886;15.604;2022-12-16T07:48:56;100333.17;;;-5.79;75.89
40794;BME280;26502;51.886;15.604;2022-12-16T07:54:20;100339.08;;;-5.71;76.02
40794;BME280;26502;51.886;15.604;2022-12-16T07:59:44;100344.70;;;-5.62;76.06
40794;BME280;26502;51.886;15.604;2022-12-16T08:05:17;100348.52;;;-5.55;76.09
40794;BME280;26502;51.886;15.604;2022-12-16T08:10:43;100351.15;;;-5.47;76.33
40794;BME280;26502;51.886;15.604;2022-12-16T08:16:08;100356.73;;;-5.39;76.18
40794;BME280;26502;51.886;15.604;2022-12-16T08:21:39;100353.98;;;-5.32;76.46
40794;BME280;26502;51.886;15.604;2022-12-16T08:27:09;100360.19;;;-5.26;76.24
40794;BME280;26502;51.886;15.604;2022-12-16T08:32:35;100361.37;;;-5.21;76.18
40794;BME280;26502;51.886;15.604;2022-12-16T08:38:03;100369.59;;;-5.11;76.23
40794;BME280;26502;51.886;15.604;2022-12-16T08:43:32;100370.14;;;-5.03;76.29
40794;BME280;26502;51.886;15.604;2022-12-16T08:49:01;100373.09;;;-4.96;76.27
40794;BME280;26502;51.886;15.604;2022-12-16T08:54:27;100374.66;;;-4.95;76.46
40794;BME280;26502;51.886;15.604;2022-12-16T08:59:54;100378.54;;;-4.86;76.59
40794;BME280;26502;51.886;15.604;2022-12-16T09:05:26;100378.95;;;-4.76;76.46
40794;BME280;26502;51.886;15.604;2022-12-16T09:10:49;100381.14;;;-4.57;76.52
40794;BME280;26502;51.886;15.604;2022-12-16T09:16:15;100385.11;;;-4.51;76.21
40794;BME280;26502;51.886;15.604;2022-12-16T09:21:42;100388.60;;;-4.43;76.18
40794;BME280;26502;51.886;15.604;2022-12-16T09:27:10;100393.42;;;-4.29;76.45
40794;BME280;26502;51.886;15.604;2022-12-16T09:32:42;100381.75;;;-4.16;76.30
40794;BME280;26502;51.886;15.604;2022-12-16T09:38:10;100382.36;;;-3.96;76.03
40794;BME280;26502;51.886;15.604;2022-12-16T09:43:50;100374.79;;;-3.86;75.99
40794;BME280;26502;51.886;15.604;2022-12-16T09:49:28;100378.36;;;-3.80;75.91
40794;BME280;26502;51.886;15.604;2022-12-16T09:55:01;100372.58;;;-3.66;76.06
40794;BME280;26502;51.886;15.604;2022-12-16T10:00:29;100370.58;;;-3.63;75.91
40794;BME280;26502;51.886;15.604;2022-12-16T10:06:10;100378.61;;;-3.51;75.74
40794;BME280;26502;51.886;15.604;2022-12-16T10:11:47;100388.73;;;-3.40;75.81
40794;BME280;26502;51.886;15.604;2022-12-16T10:17:18;100390.89;;;-3.35;75.72
40794;BME280;26502;51.886;15.604;2022-12-16T10:22:49;100383.08;;;-3.26;75.77
40794;BME280;26502;51.886;15.604;2022-12-16T10:28:21;100380.57;;;-3.21;75.55
40794;BME280;26502;51.886;15.604;2022-12-16T10:34:01;100385.91;;;-3.14;75.55
40794;BME280;26502;51.886;15.604;2022-12-16T10:39:35;100389.27;;;-3.11;75.61
40794;BME280;26502;51.886;15.604;2022-12-16T10:45:06;100396.40;;;-3.10;75.62
40794;BME280;26502;51.886;15.604;2022-12-16T10:50:40;100399.09;;;-3.05;75.48
40794;BME280;26502;51.886;15.604;2022-12-16T10:56:17;100392.83;;;-3.06;75.52
40794;BME280;26502;51.886;15.604;2022-12-16T11:02:03;100388.93;;;-3.00;75.60
40794;BME280;26502;51.886;15.604;2022-12-16T11:07:32;100384.13;;;-2.87;75.32
40794;BME280;26502;51.886;15.604;2022-12-16T11:13:13;100393.23;;;-2.83;75.49
40794;BME280;26502;51.886;15.604;2022-12-16T11:18:49;100390.52;;;-2.80;75.32
40794;BME280;26502;51.886;15.604;2022-12-16T11:24:16;100393.82;;;-2.80;75.22
40794;BME280;26502;51.886;15.604;2022-12-16T11:29:56;100398.97;;;-2.73;75.30
40794;BME280;26502;51.886;15.604;2022-12-16T11:35:27;100399.19;;;-2.80;74.97
40794;BME280;26502;51.886;15.604;2022-12-16T11:40:56;100407.65;;;-2.84;75.13
40794;BME280;26502;51.886;15.604;2022-12-16T11:46:27;100410.62;;;-2.83;75.12
40794;BME280;26502;51.886;15.604;2022-12-16T11:52:03;100408.91;;;-2.81;75.11
40794;BME280;26502;51.886;15.604;2022-12-16T11:57:38;100411.39;;;-2.88;74.98
40794;BME280;26502;51.886;15.604;2022-12-16T12:03:09;100424.36;;;-2.82;75.16
40794;BME280;26502;51.886;15.604;2022-12-16T12:08:57;100436.31;;;-2.75;74.95
40794;BME280;26502;51.886;15.604;2022-12-16T12:14:34;100445.55;;;-2.73;74.80
40794;BME280;26502;51.886;15.604;2022-12-16T12:20:25;100452.95;;;-2.78;74.76
40794;BME280;26502;51.886;15.604;2022-12-16T12:26:05;100455.46;;;-2.83;74.68
40794;BME280;26502;51.886;15.604;2022-12-16T12:31:44;100453.79;;;-2.80;74.58
40794;BME280;26502;51.886;15.604;2022-12-16T12:37:16;100466.11;;;-2.71;74.60
40794;BME280;26502;51.886;15.604;2022-12-16T12:42:51;100476.34;;;-2.72;74.52
40794;BME280;26502;51.886;15.604;2022-12-16T12:48:23;100486.21;;;-2.84;74.35
40794;BME280;26502;51.886;15.604;2022-12-16T12:53:57;100487.99;;;-2.90;74.53
40794;BME280;26502;51.886;15.604;2022-12-16T12:59:30;100489.23;;;-2.81;74.46
40794;BME280;26502;51.886;15.604;2022-12-16T13:05:01;100496.46;;;-2.74;74.78
40794;BME280;26502;51.886;15.604;2022-12-16T13:10:36;100490.24;;;-2.72;74.60
40794;BME280;26502;51.886;15.604;2022-12-16T13:16:54;100494.73;;;-2.74;74.50
40794;BME280;26502;51.886;15.604;2022-12-16T13:22:01;100507.30;;;-2.89;74.46
40794;BME280;26502;51.886;15.604;2022-12-16T13:27:29;100506.89;;;-2.92;74.45
40794;BME280;26502;51.886;15.604;2022-12-16T13:33:32;100506.82;;;-2.88;74.47
40794;BME280;26502;51.886;15.604;2022-12-16T13:39:05;100511.19;;;-2.87;74.59
40794;BME280;26502;51.886;15.604;2022-12-16T13:44:57;100513.17;;;-2.91;74.57
40794;BME280;26502;51.886;15.604;2022-12-16T13:50:40;100515.71;;;-2.95;74.57
40794;BME280;26502;51.886;15.604;2022-12-16T13:56:08;100515.78;;;-2.99;74.53
40794;BME280;26502;51.886;15.604;2022-12-16T14:01:40;100523.55;;;-3.02;74.57
40794;BME280;26502;51.886;15.604;2022-12-16T14:07:09;100534.88;;;-3.09;74.37
40794;BME280;26502;51.886;15.604;2022-12-16T14:12:47;100539.64;;;-3.14;74.51
40794;BME280;26502;51.886;15.604;2022-12-16T14:18:26;100541.17;;;-3.07;74.63
40794;BME280;26502;51.886;15.604;2022-12-16T14:24:00;100549.73;;;-3.04;74.54
40794;BME280;26502;51.886;15.604;2022-12-16T14:29:30;100556.99;;;-3.07;74.49
40794;BME280;26502;51.886;15.604;2022-12-16T14:35:03;100575.27;;;-3.05;74.55
40794;BME280;26502;51.886;15.604;2022-12-16T14:40:32;100581.71;;;-3.04;74.35
40794;BME280;26502;51.886;15.604;2022-12-16T14:46:00;100586.90;;;-3.05;74.48
40794;BME280;26502;51.886;15.604;2022-12-16T14:51:30;100594.33;;;-3.08;74.34
40794;BME280;26502;51.886;15.604;2022-12-16T14:57:01;100610.51;;;-3.15;74.59
40794;BME280;26502;51.886;15.604;2022-12-16T15:02:29;100621.71;;;-3.27;74.61
40794;BME280;26502;51.886;15.604;2022-12-16T15:07:59;100631.08;;;-3.34;74.47
40794;BME280;26502;51.886;15.604;2022-12-16T15:13:35;100639.61;;;-3.34;74.54
40794;BME280;26502;51.886;15.604;2022-12-16T15:19:00;100648.52;;;-3.31;74.64
40794;BME280;26502;51.886;15.604;2022-12-16T15:24:27;100652.75;;;-3.36;74.49
40794;BME280;26502;51.886;15.604;2022-12-16T15:29:55;100653.81;;;-3.43;74.68
40794;BME280;26502;51.886;15.604;2022-12-16T15:35:31;100657.95;;;-3.36;74.85
40794;BME280;26502;51.886;15.604;2022-12-16T15:40:57;100662.31;;;-3.35;74.82
40794;BME280;26502;51.886;15.604;2022-12-16T15:46:24;100666.59;;;-3.38;74.64
40794;BME280;26502;51.886;15.604;2022-12-16T15:51:50;100672.86;;;-3.37;74.69
40794;BME280;26502;51.886;15.604;2022-12-16T15:57:30;100675.98;;;-3.45;74.47
40794;BME280;26502;51.886;15.604;2022-12-16T16:02:55;100685.55;;;-3.51;74.58
40794;BME280;26502;51.886;15.604;2022-12-16T16:08:20;100691.00;;;-3.48;74.82
40794;BME280;26502;51.886;15.604;2022-12-16T16:13:50;100696.61;;;-3.46;74.59
40794;BME280;26502;51.886;15.604;2022-12-16T16:19:18;100691.45;;;-3.51;74.81
40794;BME280;26502;51.886;15.604;2022-12-16T16:24:58;100695.09;;;-3.59;74.57
40794;BME280;26502;51.886;15.604;2022-12-16T16:30:23;100699.42;;;-3.66;74.84
40794;BME280;26502;51.886;15.604;2022-12-16T16:35:48;100705.13;;;-3.73;74.83
40794;BME280;26502;51.886;15.604;2022-12-16T16:41:14;100716.65;;;-3.77;74.99
40794;BME280;26502;51.886;15.604;2022-12-16T16:46:41;100718.48;;;-3.73;74.89
40794;BME280;26502;51.886;15.604;2022-12-16T16:52:11;100722.80;;;-3.74;74.72
40794;BME280;26502;51.886;15.604;2022-12-16T16:57:38;100732.34;;;-3.74;75.10
40794;BME280;26502;51.886;15.604;2022-12-16T17:03:04;100733.77;;;-3.79;74.83
40794;BME280;26502;51.886;15.604;2022-12-16T17:08:29;100739.30;;;-3.81;74.88
40794;BME280;26502;51.886;15.604;2022-12-16T17:13:54;100742.98;;;-3.85;75.01
40794;BME280;26502;51.886;15.604;2022-12-16T17:19:19;100743.80;;;-3.87;74.95
40794;BME280;26502;51.886;15.604;2022-12-16T17:24:44;100743.06;;;-3.96;74.81
40794;BME280;26502;51.886;15.604;2022-12-16T17:30:21;100756.95;;;-4.01;74.59
40794;BME280;26502;51.886;15.604;2022-12-16T17:35:48;100759.92;;;-4.06;74.94
40794;BME280;26502;51.886;15.604;2022-12-16T17:41:15;100768.10;;;-4.05;75.12
40794;BME280;26502;51.886;15.604;2022-12-16T17:46:40;100775.83;;;-4.08;74.95
40794;BME280;26502;51.886;15.604;2022-12-16T17:52:05;100784.98;;;-4.09;75.00
40794;BME280;26502;51.886;15.604;2022-12-16T17:57:34;100796.54;;;-4.00;75.32
40794;BME280;26502;51.886;15.604;2022-12-16T18:03:06;100801.70;;;-3.95;74.96
40794;BME280;26502;51.886;15.604;2022-12-16T18:08:36;100808.91;;;-3.92;74.98
40794;BME280;26502;51.886;15.604;2022-12-16T18:14:12;100814.39;;;-3.94;74.91
40794;BME280;26502;51.886;15.604;2022-12-16T18:19:47;100819.11;;;-4.05;74.83
40794;BME280;26502;51.886;15.604;2022-12-16T18:25:26;100823.40;;;-4.01;75.00
40794;BME280;26502;51.886;15.604;2022-12-16T18:30:58;100835.80;;;-4.04;74.81
40794;BME280;26502;51.886;15.604;2022-12-16T18:36:35;100837.92;;;-3.96;75.24
40794;BME280;26502;51.886;15.604;2022-12-16T18:42:07;100844.54;;;-3.96;75.03
40794;BME280;26502;51.886;15.604;2022-12-16T18:47:47;100845.13;;;-3.87;75.16
40794;BME280;26502;51.886;15.604;2022-12-16T18:53:17;100841.23;;;-3.78;75.12
40794;BME280;26502;51.886;15.604;2022-12-16T18:58:51;100836.84;;;-3.74;75.13
40794;BME280;26502;51.886;15.604;2022-12-16T19:04:23;100840.68;;;-3.73;74.86
40794;BME280;26502;51.886;15.604;2022-12-16T19:09:57;100855.78;;;-3.91;74.96
40794;BME280;26502;51.886;15.604;2022-12-16T19:15:32;100856.29;;;-3.97;75.06
40794;BME280;26502;51.886;15.604;2022-12-16T19:21:05;100864.73;;;-3.94;75.13
40794;BME280;26502;51.886;15.604;2022-12-16T19:26:35;100866.88;;;-3.97;74.94
40794;BME280;26502;51.886;15.604;2022-12-16T19:32:01;100872.61;;;-3.97;75.10
40794;BME280;26502;51.886;15.604;2022-12-16T19:37:30;100870.23;;;-3.96;75.23
40794;BME280;26502;51.886;15.604;2022-12-16T19:43:02;100871.36;;;-3.98;75.17
40794;BME280;26502;51.886;15.604;2022-12-16T19:48:33;100883.51;;;-4.04;75.11
40794;BME280;26502;51.886;15.604;2022-12-16T19:54:05;100886.95;;;-4.11;74.91
40794;BME280;26502;51.886;15.604;2022-12-16T19:59:53;100891.89;;;-4.08;75.47
40794;BME280;26502;51.886;15.604;2022-12-16T20:05:23;100895.08;;;-4.17;75.07
40794;BME280;26502;51.886;15.604;2022-12-16T20:11:02;100896.45;;;-4.12;75.46
40794;BME280;26502;51.886;15.604;2022-12-16T20:16:30;100905.90;;;-4.09;75.26
40794;BME280;26502;51.886;15.604;2022-12-16T20:22:14;100909.64;;;-4.12;75.36
40794;BME280;26502;51.886;15.604;2022-12-16T20:27:49;100914.38;;;-4.10;75.35
40794;BME280;26502;51.886;15.604;2022-12-16T20:33:22;100922.94;;;-4.03;75.79
40794;BME280;26502;51.886;15.604;2022-12-16T20:38:52;100920.92;;;-4.06;75.25
40794;BME280;26502;51.886;15.604;2022-12-16T20:44:19;100923.41;;;-4.03;75.54
40794;BME280;26502;51.886;15.604;2022-12-16T20:49:44;100926.92;;;-4.08;75.63
40794;BME280;26502;51.886;15.604;2022-12-16T20:55:09;100930.39;;;-4.08;75.61
40794;BME280;26502;51.886;15.604;2022-12-16T21:00:37;100932.00;;;-4.01;75.46
40794;BME280;26502;51.886;15.604;2022-12-16T21:06:09;100934.92;;;-4.02;75.59
40794;BME280;26502;51.886;15.604;2022-12-16T21:11:45;100941.88;;;-3.96;75.39
40794;BME280;26502;51.886;15.604;2022-12-16T21:17:17;100953.52;;;-3.84;75.51
40794;BME280;26502;51.886;15.604;2022-12-16T21:22:55;100957.30;;;-3.79;75.62
40794;BME280;26502;51.886;15.604;2022-12-16T21:28:39;100959.93;;;-3.79;75.62
40794;BME280;26502;51.886;15.604;2022-12-16T21:34:17;100966.63;;;-3.87;75.55
40794;BME280;26502;51.886;15.604;2022-12-16T21:39:53;100971.04;;;-3.90;75.56
40794;BME280;26502;51.886;15.604;2022-12-16T21:45:30;100983.86;;;-3.90;75.83
40794;BME280;26502;51.886;15.604;2022-12-16T21:51:11;100987.55;;;-3.89;75.56
40794;BME280;26502;51.886;15.604;2022-12-16T21:56:41;100999.59;;;-3.87;75.67
40794;BME280;26502;51.886;15.604;2022-12-16T22:02:18;100997.70;;;-3.97;75.77
40794;BME280;26502;51.886;15.604;2022-12-16T22:07:57;100998.36;;;-4.04;75.42
40794;BME280;26502;51.886;15.604;2022-12-16T22:13:35;101012.30;;;-4.12;75.65
40794;BME280;26502;51.886;15.604;2022-12-16T22:19:04;101011.67;;;-4.11;75.77
40794;BME280;26502;51.886;15.604;2022-12-16T22:24:48;101022.73;;;-4.01;75.86
40794;BME280;26502;51.886;15.604;2022-12-16T22:30:17;101038.48;;;-4.02;75.76
40794;BME280;26502;51.886;15.604;2022-12-16T22:35:46;101044.49;;;-3.99;75.89
40794;BME280;26502;51.886;15.604;2022-12-16T22:41:16;101044.81;;;-3.99;75.76
40794;BME280;26502;51.886;15.604;2022-12-16T22:46:49;101037.27;;;-3.97;75.59
40794;BME280;26502;51.886;15.604;2022-12-16T22:52:21;101041.37;;;-3.99;75.52
40794;BME280;26502;51.886;15.604;2022-12-16T22:57:49;101047.72;;;-4.01;75.63
40794;BME280;26502;51.886;15.604;2022-12-16T23:03:20;101050.30;;;-3.96;75.84
40794;BME280;26502;51.886;15.604;2022-12-16T23:08:51;101047.08;;;-3.94;75.44
40794;BME280;26502;51.886;15.604;2022-12-16T23:14:20;101042.95;;;-3.99;75.41
40794;BME280;26502;51.886;15.604;2022-12-16T23:19:51;101053.80;;;-4.16;75.27
40794;BME280;26502;51.886;15.604;2022-12-16T23:25:19;101062.36;;;-4.40;75.23
40794;BME280;26502;51.886;15.604;2022-12-16T23:30:52;101067.00;;;-4.26;75.74
40794;BME280;26502;51.886;15.604;2022-12-16T23:36:19;101071.08;;;-4.13;75.90
40794;BME280;26502;51.886;15.604;2022-12-16T23:41:48;101073.05;;;-4.11;75.65
40794;BME280;26502;51.886;15.604;2022-12-16T23:47:24;101080.73;;;-4.16;75.70
40794;BME280;26502;51.886;15.604;2022-12-16T23:52:59;101091.80;;;-4.16;75.76
40794;BME280;26502;51.886;15.604;2022-12-16T23:58:28;101098.50;;;-4.08;75.62
